Flight NumberIRM1050 Date06.02.2018
Departure AirportOIKK Arrival AirportOIII
Departure Time18.39Arrival Time19.56
Pilot In CommandSaeed TabaTabaei Block Time1.30 Hours
Pilot Rating100 % AircraftEP-MMO [ A300-600 ]


Distance432.00 Nm. Passengers280
Fuel Used8,290 Kg. Cargo12635 Kg
Expense Details Income Details
Fuel Cost6,102 v$Ticket Sales28,840 v$
Pilot Salary3,459 v$ Cargo income18,799.00 v$
Crew Salary1,400 v$ Bonus8,236 v$
Gross Profit45,958 v$ ( 45,958 v$ )

Client Versionv2.2.0.rc2 Max Simrate1
Flight Critique Pilot CommentsOIII 061900Z 00000KT 3000 HZ NSC 09/01 Q1023 A3023 NOSIG //RADA2V ILS 29L